Time;durP1;ratioP1;P1;durP2;ratioP2;P2;SDS_P1;SDS_P2;PMS_P1;PMS_P2;Temp;Humidity;BMP_temperature;BMP_pressure;BME280_temperature;BME280_humidity;BME280_pressure;Samples;Min_cycle;Max_cycle;Signal;HPM_P1;HPM_P2
2023/10/09 00:03:09;;;;;;;15.05;4.80;;;;;;;;;;5005523;28;20085;-61
2023/10/09 00:08:22;;;;;;;12.73;4.80;;;;;;;;;;5046458;28;20111;-61
2023/10/09 00:10:57;;;;;;;10.40;5.25;;;;;;;;;;5014867;28;20056;-61
2023/10/09 00:13:29;;;;;;;15.45;4.97;;;;;;;;;;5034932;28;20045;-60
2023/10/09 00:16:00;;;;;;;17.50;5.18;;;;;;;;;;5041761;28;20053;-61
2023/10/09 00:18:29;;;;;;;18.50;5.60;;;;;;;;;;5042647;28;20159;-61
2023/10/09 00:21:00;;;;;;;16.83;5.20;;;;;;;;;;5028993;28;20067;-61
2023/10/09 00:23:27;;;;;;;15.38;5.47;;;;;;;;;;5050689;28;20052;-61
2023/10/09 00:28:58;;;;;;;15.15;4.93;;;;;;;;;;5020055;28;20132;-61
2023/10/09 00:31:30;;;;;;;13.77;5.50;;;;;;;;;;5020143;28;20187;-61
2023/10/09 00:34:05;;;;;;;19.60;5.82;;;;;;;;;;5022776;28;20060;-61
2023/10/09 00:36:32;;;;;;;14.38;5.50;;;;;;;;;;5024952;28;20176;-61
2023/10/09 00:39:10;;;;;;;18.35;5.43;;;;;;;;;;5031104;28;20102;-61
2023/10/09 00:41:36;;;;;;;13.85;5.22;;;;;;;;;;5040170;28;20516;-61
2023/10/09 00:44:07;;;;;;;16.63;5.88;;;;;;;;;;5040735;28;20044;-61
2023/10/09 00:46:34;;;;;;;17.17;5.50;;;;;;;;;;5038184;28;20108;-61
2023/10/09 00:49:02;;;;;;;14.10;5.90;;;;;;;;;;5038821;28;20390;-61
2023/10/09 00:51:34;;;;;;;15.05;6.18;;;;;;;;;;5041195;28;20162;-61
2023/10/09 00:54:07;;;;;;;18.65;6.38;;;;;;;;;;5042850;28;20036;-60
2023/10/09 00:56:43;;;;;;;15.50;6.20;;;;;;;;;;5045807;28;20060;-61
2023/10/09 00:59:20;;;;;;;18.90;7.45;;;;;;;;;;5053240;28;20108;-60
2023/10/09 01:02:04;;;;;;;16.17;6.63;;;;;;;;;;5041674;28;20045;-61
2023/10/09 01:04:36;;;;;;;17.75;6.20;;;;;;;;;;5040455;28;20126;-60
2023/10/09 01:07:08;;;;;;;18.13;6.45;;;;;;;;;;5039430;28;20621;-60
2023/10/09 01:09:37;;;;;;;16.58;7.15;;;;;;;;;;5039221;28;20426;-60
2023/10/09 01:12:04;;;;;;;17.38;6.60;;;;;;;;;;5040843;28;20044;-60
2023/10/09 01:14:32;;;;;;;22.75;7.07;;;;;;;;;;5040018;28;20128;-60
2023/10/09 01:17:02;;;;;;;23.92;7.50;;;;;;;;;;5038404;28;20063;-60
2023/10/09 01:19:28;;;;;;;16.45;7.28;;;;;;;;;;5033477;28;20045;-61
2023/10/09 01:21:54;;;;;;;20.30;7.95;;;;;;;;;;5036038;28;20056;-60
2023/10/09 01:24:22;;;;;;;18.23;7.07;;;;;;;;;;5031223;28;20060;-60
2023/10/09 01:26:49;;;;;;;19.88;8.35;;;;;;;;;;5041861;28;20139;-60
2023/10/09 01:29:19;;;;;;;20.63;7.93;;;;;;;;;;5041536;28;20041;-60
2023/10/09 01:31:52;;;;;;;27.05;8.15;;;;;;;;;;5040799;28;20127;-60
2023/10/09 01:34:41;;;;;;;17.67;8.07;;;;;;;;;;5041695;28;20052;-60
2023/10/09 01:37:15;;;;;;;21.73;8.35;;;;;;;;;;5038550;28;20045;-61
2023/10/09 01:39:42;;;;;;;18.42;8.02;;;;;;;;;;5038157;28;20518;-61
2023/10/09 01:42:09;;;;;;;21.90;8.75;;;;;;;;;;5035487;28;20041;-60
2023/10/09 01:44:35;;;;;;;19.23;8.52;;;;;;;;;;5029565;28;20099;-60
2023/10/09 01:47:08;;;;;;;21.10;8.25;;;;;;;;;;5027951;28;20037;-60
2023/10/09 01:49:37;;;;;;;21.38;8.90;;;;;;;;;;5032230;28;20102;-60
2023/10/09 01:52:09;;;;;;;20.80;9.00;;;;;;;;;;5033443;28;20041;-60
2023/10/09 01:54:39;;;;;;;24.45;9.60;;;;;;;;;;5040452;28;20089;-60
2023/10/09 01:57:12;;;;;;;26.95;9.80;;;;;;;;;;5033310;28;20049;-60
2023/10/09 01:59:47;;;;;;;25.77;9.25;;;;;;;;;;5029006;28;20056;-60
2023/10/09 02:02:34;;;;;;;25.13;10.90;;;;;;;;;;5041548;28;20120;-60
2023/10/09 02:07:40;;;;;;;25.35;10.68;;;;;;;;;;5039071;28;20717;-60
2023/10/09 02:10:25;;;;;;;27.40;11.57;;;;;;;;;;5037838;28;20068;-60
2023/10/09 02:12:59;;;;;;;29.50;12.00;;;;;;;;;;5020468;28;20087;-60
2023/10/09 02:23:30;;;;;;;28.83;11.27;;;;;;;;;;5040900;28;20045;-61
2023/10/09 02:26:05;;;;;;;29.45;11.65;;;;;;;;;;5035258;28;20067;-60
2023/10/09 02:28:33;;;;;;;27.85;11.02;;;;;;;;;;5032387;28;20060;-60
2023/10/09 02:31:09;;;;;;;31.37;12.63;;;;;;;;;;5043833;28;20048;-60
2023/10/09 02:33:36;;;;;;;28.55;11.88;;;;;;;;;;5043488;28;20292;-61
2023/10/09 02:36:06;;;;;;;29.40;12.60;;;;;;;;;;5041278;28;20526;-60
2023/10/09 02:38:38;;;;;;;32.00;12.85;;;;;;;;;;5036831;28;20782;-61
2023/10/09 02:43:40;;;;;;;33.15;13.45;;;;;;;;;;5032719;28;20054;-61
2023/10/09 02:46:21;;;;;;;33.22;13.80;;;;;;;;;;5044545;28;20115;-60
2023/10/09 02:48:57;;;;;;;34.55;14.05;;;;;;;;;;5036369;28;20045;-61
2023/10/09 02:57:08;;;;;;;39.72;15.32;;;;;;;;;;5035912;28;20045;-60
2023/10/09 02:59:37;;;;;;;40.35;15.15;;;;;;;;;;5042583;28;20064;-61
2023/10/09 03:02:04;;;;;;;37.47;15.32;;;;;;;;;;5044481;28;20037;-60
2023/10/09 03:04:30;;;;;;;35.15;15.25;;;;;;;;;;5042335;28;20639;-61
2023/10/09 03:06:57;;;;;;;40.47;15.20;;;;;;;;;;5042737;28;20064;-61
2023/10/09 03:09:29;;;;;;;40.25;17.48;;;;;;;;;;5044760;28;20041;-61
2023/10/09 03:12:02;;;;;;;43.58;16.88;;;;;;;;;;5040191;28;20048;-61
2023/10/09 03:14:29;;;;;;;41.85;17.73;;;;;;;;;;5033952;28;20037;-61
2023/10/09 03:16:59;;;;;;;40.13;17.95;;;;;;;;;;5043396;28;20033;-61
2023/10/09 03:19:26;;;;;;;40.03;17.75;;;;;;;;;;5030478;28;20099;-61
2023/10/09 03:21:53;;;;;;;36.30;16.13;;;;;;;;;;5040321;28;20037;-61
2023/10/09 03:24:20;;;;;;;45.25;17.83;;;;;;;;;;5025659;28;20048;-61
2023/10/09 03:26:46;;;;;;;40.50;18.15;;;;;;;;;;5028572;28;20077;-61
2023/10/09 03:29:12;;;;;;;46.55;18.27;;;;;;;;;;5054371;28;20063;-61
2023/10/09 03:31:38;;;;;;;41.17;18.25;;;;;;;;;;5054454;28;20044;-61
2023/10/09 03:34:06;;;;;;;41.13;18.58;;;;;;;;;;5043362;28;20757;-61
2023/10/09 03:36:37;;;;;;;44.60;20.40;;;;;;;;;;5042363;28;20123;-61
2023/10/09 03:39:07;;;;;;;45.75;18.73;;;;;;;;;;5042374;28;20080;-61
2023/10/09 03:41:40;;;;;;;51.47;20.45;;;;;;;;;;5043135;28;20052;-61
2023/10/09 03:44:06;;;;;;;47.83;21.00;;;;;;;;;;5042231;28;20048;-61
2023/10/09 03:46:33;;;;;;;46.85;19.83;;;;;;;;;;5037909;28;20537;-61
2023/10/09 03:49:10;;;;;;;48.50;20.67;;;;;;;;;;5037063;28;20250;-61
2023/10/09 03:51:37;;;;;;;49.33;20.17;;;;;;;;;;5041601;28;20045;-61
2023/10/09 03:54:09;;;;;;;49.72;20.08;;;;;;;;;;5039920;28;20076;-61
2023/10/09 03:56:35;;;;;;;46.25;19.98;;;;;;;;;;5036970;28;20095;-61
2023/10/09 03:59:04;;;;;;;50.10;21.13;;;;;;;;;;5036775;28;20040;-61
2023/10/09 04:01:37;;;;;;;49.78;21.35;;;;;;;;;;5042788;28;20140;-62
2023/10/09 04:04:05;;;;;;;45.60;19.65;;;;;;;;;;5043369;28;20090;-61
2023/10/09 04:06:37;;;;;;;49.13;20.98;;;;;;;;;;5039263;28;20053;-61
2023/10/09 04:09:27;;;;;;;51.38;21.70;;;;;;;;;;5043568;28;20037;-61
2023/10/09 04:12:12;;;;;;;45.58;20.60;;;;;;;;;;5043799;28;20053;-60
2023/10/09 04:14:49;;;;;;;49.50;20.52;;;;;;;;;;5032129;28;20530;-61
2023/10/09 04:23:34;;;;;;;52.95;21.77;;;;;;;;;;5024982;28;20132;-61
2023/10/09 04:25:25;;;;;;;47.72;21.15;;;;;;;;;;5038643;28;20159;-61
2023/10/09 04:28:18;;;;;;;48.45;20.77;;;;;;;;;;5031996;28;20118;-61
2023/10/09 04:30:55;;;;;;;49.83;20.88;;;;;;;;;;5029548;28;20041;-61
2023/10/09 04:58:00;;;;;;;52.30;22.52;;;;;;;;;;5036531;28;20052;-60
2023/10/09 05:03:12;;;;;;;45.03;19.67;;;;;;;;;;5040631;28;20049;-60
2023/10/09 05:16:18;;;;;;;52.60;19.60;;;;;;;;;;5038999;28;20044;-60
2023/10/09 05:18:45;;;;;;;53.10;20.00;;;;;;;;;;5026344;28;20049;-61
2023/10/09 05:29:19;;;;;;;46.90;19.13;;;;;;;;;;5040031;28;20049;-60
2023/10/09 05:35:04;;;;;;;41.72;19.63;;;;;;;;;;5031603;28;20764;-60
2023/10/09 05:37:24;;;;;;;43.75;19.05;;;;;;;;;;5020091;28;20106;-60
2023/10/09 05:42:42;;;;;;;41.40;17.00;;;;;;;;;;5035919;28;20477;-61
2023/10/09 05:50:38;;;;;;;42.17;16.52;;;;;;;;;;5009777;28;20057;-61
2023/10/09 06:08:38;;;;;;;;;;;;;;;;;;5036049;28;20045;-60
2023/10/09 06:11:38;;;;;;;32.33;13.43;;;;;;;;;;5035047;28;20003;-60
2023/10/09 06:14:04;;;;;;;29.67;11.60;;;;;;;;;;5043561;28;20080;-61
2023/10/09 06:19:08;;;;;;;28.15;12.07;;;;;;;;;;5039259;28;20053;-61
2023/10/09 06:22:02;;;;;;;22.48;10.93;;;;;;;;;;5028559;28;20124;-60
2023/10/09 06:24:54;;;;;;;24.90;11.02;;;;;;;;;;5034355;28;20496;-61
2023/10/09 06:30:23;;;;;;;26.98;10.20;;;;;;;;;;5041804;28;20058;-61
2023/10/09 06:33:04;;;;;;;24.63;9.65;;;;;;;;;;5043915;28;20041;-60
2023/10/09 06:35:35;;;;;;;16.60;9.10;;;;;;;;;;5043536;28;20064;-60
2023/10/09 06:45:54;;;;;;;21.23;9.57;;;;;;;;;;5042546;28;20037;-60
2023/10/09 06:59:24;;;;;;;28.00;8.75;;;;;;;;;;5013298;28;20044;-60
2023/10/09 07:07:02;;;;;;;18.08;7.60;;;;;;;;;;5043941;28;20041;-60
2023/10/09 07:10:26;;;;;;;18.65;7.70;;;;;;;;;;5043406;28;20094;-60
2023/10/09 07:12:32;;;;;;;23.17;7.95;;;;;;;;;;5045033;28;20080;-60
2023/10/09 07:16:23;;;;;;;23.20;8.05;;;;;;;;;;5043856;28;20048;-60
2023/10/09 07:17:47;;;;;;;18.65;7.22;;;;;;;;;;5039571;28;20045;-60
2023/10/09 07:20:14;;;;;;;18.10;7.80;;;;;;;;;;5032565;28;20502;-60
2023/10/09 07:22:52;;;;;;;22.15;7.68;;;;;;;;;;5035347;28;20250;-61
2023/10/09 07:25:29;;;;;;;19.23;8.00;;;;;;;;;;5027718;28;20495;-60
2023/10/09 07:27:56;;;;;;;19.30;7.65;;;;;;;;;;5036996;28;20486;-59
2023/10/09 07:33:05;;;;;;;22.45;8.15;;;;;;;;;;5040725;28;20049;-60
2023/10/09 07:38:19;;;;;;;21.85;7.75;;;;;;;;;;5041694;28;20124;-58
2023/10/09 07:43:45;;;;;;;20.67;7.63;;;;;;;;;;5031875;28;20045;-59
2023/10/09 07:46:32;;;;;;;18.55;7.65;;;;;;;;;;5034530;28;20045;-59
2023/10/09 07:49:12;;;;;;;25.75;8.10;;;;;;;;;;5030707;28;20075;-59
2023/10/09 07:51:38;;;;;;;22.65;7.78;;;;;;;;;;5039228;28;20461;-59
2023/10/09 07:54:08;;;;;;;21.73;7.22;;;;;;;;;;5037813;28;20041;-59
2023/10/09 07:56:45;;;;;;;16.15;7.35;;;;;;;;;;5036703;28;20060;-62
2023/10/09 07:59:12;;;;;;;19.17;7.20;;;;;;;;;;5037940;28;20498;-62
2023/10/09 08:04:49;;;;;;;22.80;6.88;;;;;;;;;;5005430;28;21056;-58
2023/10/09 08:07:19;;;;;;;20.48;7.82;;;;;;;;;;5041092;28;20061;-58
2023/10/09 08:09:57;;;;;;;20.30;9.07;;;;;;;;;;5038801;28;20525;-58
2023/10/09 08:18:18;;;;;;;19.55;6.55;;;;;;;;;;5005125;28;20077;-58
2023/10/09 08:23:33;;;;;;;22.88;8.13;;;;;;;;;;5035004;28;20044;-59
2023/10/09 08:26:14;;;;;;;17.60;7.20;;;;;;;;;;5006464;28;20046;-59
2023/10/09 08:28:42;;;;;;;15.45;7.45;;;;;;;;;;5036929;28;20048;-60
2023/10/09 08:31:34;;;;;;;19.98;7.53;;;;;;;;;;5029235;28;20045;-59
2023/10/09 08:34:03;;;;;;;20.13;7.75;;;;;;;;;;5040104;28;20060;-59
2023/10/09 08:36:36;;;;;;;24.63;7.75;;;;;;;;;;5028813;28;20046;-59
2023/10/09 08:39:16;;;;;;;19.65;7.35;;;;;;;;;;5038582;28;20041;-59
2023/10/09 08:41:42;;;;;;;22.55;7.18;;;;;;;;;;5027912;28;20526;-60
2023/10/09 08:44:15;;;;;;;20.13;8.55;;;;;;;;;;5016105;28;20374;-60
2023/10/09 08:46:42;;;;;;;28.45;8.15;;;;;;;;;;5036961;28;20080;-60
2023/10/09 08:49:09;;;;;;;21.73;8.48;;;;;;;;;;5036296;28;20449;-60
2023/10/09 08:51:36;;;;;;;23.80;8.07;;;;;;;;;;5033962;28;20124;-62
2023/10/09 08:54:02;;;;;;;16.35;7.57;;;;;;;;;;5026506;28;20081;-59
2023/10/09 08:56:28;;;;;;;27.08;7.93;;;;;;;;;;5032904;28;20432;-59
2023/10/09 08:58:56;;;;;;;21.27;7.68;;;;;;;;;;5022219;28;20595;-59
2023/10/09 09:01:24;;;;;;;24.20;8.75;;;;;;;;;;5036358;28;20052;-59
2023/10/09 09:03:50;;;;;;;28.92;8.52;;;;;;;;;;5039529;28;20561;-59
2023/10/09 09:06:19;;;;;;;20.05;8.10;;;;;;;;;;5038340;28;20114;-61
2023/10/09 09:08:45;;;;;;;;;;;;;;;;;;5037318;28;20117;-60
2023/10/09 09:11:12;;;;;;;18.45;7.57;;;;;;;;;;5038378;28;20000;-59
2023/10/09 09:13:41;;;;;;;21.75;8.30;;;;;;;;;;5037184;28;20041;-59
2023/10/09 09:16:14;;;;;;;20.42;7.75;;;;;;;;;;5036640;28;20411;-60
2023/10/09 09:18:51;;;;;;;20.67;7.40;;;;;;;;;;5037312;28;20045;-60
2023/10/09 09:21:22;;;;;;;21.25;7.30;;;;;;;;;;5037941;28;20049;-60
2023/10/09 09:23:57;;;;;;;19.73;7.95;;;;;;;;;;5034645;28;20044;-60
2023/10/09 09:26:44;;;;;;;20.45;8.65;;;;;;;;;;5033940;28;20049;-60
2023/10/09 09:29:11;;;;;;;23.45;8.10;;;;;;;;;;5039322;28;20114;-60
2023/10/09 09:31:41;;;;;;;23.25;7.60;;;;;;;;;;5032528;28;20048;-59
2023/10/09 09:34:16;;;;;;;25.27;7.90;;;;;;;;;;5032285;28;20073;-60
2023/10/09 09:36:56;;;;;;;26.20;8.18;;;;;;;;;;5039695;28;20048;-60
2023/10/09 09:39:28;;;;;;;20.98;7.70;;;;;;;;;;5039971;28;20049;-60
2023/10/09 09:41:57;;;;;;;23.00;6.85;;;;;;;;;;5026540;28;20107;-60
2023/10/09 09:44:30;;;;;;;23.67;6.55;;;;;;;;;;5037806;28;20049;-60
2023/10/09 09:46:57;;;;;;;16.73;7.97;;;;;;;;;;5037073;28;20054;-60
2023/10/09 09:49:23;;;;;;;17.77;6.18;;;;;;;;;;5038165;28;20045;-59
2023/10/09 09:51:49;;;;;;;19.30;6.63;;;;;;;;;;5039597;28;20056;-60
2023/10/09 09:54:15;;;;;;;20.90;7.10;;;;;;;;;;5036483;28;20047;-59
2023/10/09 09:56:50;;;;;;;21.85;7.60;;;;;;;;;;5019951;28;20042;-59
2023/10/09 09:59:21;;;;;;;17.98;7.45;;;;;;;;;;5025484;28;20440;-61
2023/10/09 10:01:56;;;;;;;22.50;7.50;;;;;;;;;;5027420;28;20045;-60
2023/10/09 10:04:24;;;;;;;20.30;7.20;;;;;;;;;;5038774;28;20057;-59
2023/10/09 10:06:51;;;;;;;30.05;7.75;;;;;;;;;;5025552;28;20037;-59
2023/10/09 10:09:48;;;;;;;23.58;8.13;;;;;;;;;;5027225;28;20538;-60
2023/10/09 10:12:17;;;;;;;21.53;7.43;;;;;;;;;;5016305;28;20060;-59
2023/10/09 10:14:59;;;;;;;19.42;7.50;;;;;;;;;;5024914;28;20054;-59
2023/10/09 10:17:29;;;;;;;15.90;7.53;;;;;;;;;;5039282;28;20086;-59
2023/10/09 10:20:04;;;;;;;19.95;7.90;;;;;;;;;;5026803;28;20061;-59
2023/10/09 10:22:31;;;;;;;21.60;7.70;;;;;;;;;;5027935;28;20067;-59
2023/10/09 10:24:57;;;;;;;25.40;8.15;;;;;;;;;;5039029;28;20045;-59
2023/10/09 10:27:31;;;;;;;20.02;8.27;;;;;;;;;;5020446;28;20127;-59
2023/10/09 10:30:13;;;;;;;24.08;7.80;;;;;;;;;;5031706;28;20071;-60
2023/10/09 10:33:08;;;;;;;20.33;7.15;;;;;;;;;;5021803;28;20114;-60
2023/10/09 10:38:36;;;;;;;21.75;7.43;;;;;;;;;;5035739;28;20045;-59
2023/10/09 10:41:11;;;;;;;21.88;7.28;;;;;;;;;;5036291;28;20050;-60
2023/10/09 10:46:37;;;;;;;20.92;6.78;;;;;;;;;;5017099;28;20045;-59
2023/10/09 10:49:21;;;;;;;27.30;7.70;;;;;;;;;;5035349;28;20099;-60
2023/10/09 10:51:49;;;;;;;18.90;7.07;;;;;;;;;;5032791;28;20136;-60
2023/10/09 10:56:58;;;;;;;19.02;6.70;;;;;;;;;;5041442;28;20049;-60
2023/10/09 10:59:26;;;;;;;21.98;7.22;;;;;;;;;;5037755;28;20536;-60
2023/10/09 11:01:57;;;;;;;26.58;7.65;;;;;;;;;;5042691;28;20041;-60
2023/10/09 11:04:24;;;;;;;23.45;7.45;;;;;;;;;;5040124;28;20053;-60
2023/10/09 11:07:24;;;;;;;21.02;6.63;;;;;;;;;;5024830;28;20042;-60
2023/10/09 11:09:58;;;;;;;20.05;8.05;;;;;;;;;;5023425;28;20531;-60
2023/10/09 11:12:24;;;;;;;22.90;7.82;;;;;;;;;;5029091;28;20041;-60
2023/10/09 11:17:38;;;;;;;24.92;7.63;;;;;;;;;;4994561;28;20060;-60
2023/10/09 11:20:24;;;;;;;21.25;7.80;;;;;;;;;;5026607;28;20391;-60
2023/10/09 11:25:38;;;;;;;18.88;7.28;;;;;;;;;;5034671;28;20060;-60
2023/10/09 11:28:27;;;;;;;;;;;;;;;;;;5016758;28;20064;-60
2023/10/09 11:30:55;;;;;;;20.27;7.03;;;;;;;;;;5039825;28;19925;-60
2023/10/09 11:33:21;;;;;;;19.57;6.80;;;;;;;;;;5038694;28;20128;-60
2023/10/09 11:35:57;;;;;;;20.40;6.80;;;;;;;;;;5038359;28;20502;-60
2023/10/09 11:38:23;;;;;;;21.35;6.38;;;;;;;;;;5036110;28;20045;-60
2023/10/09 11:43:16;;;;;;;17.90;6.25;;;;;;;;;;5035578;28;20057;-59
2023/10/09 11:45:54;;;;;;;20.77;5.65;;;;;;;;;;5041374;28;20052;-59
2023/10/09 11:48:39;;;;;;;;;;;;;;;;;;5037087;28;20049;-59
2023/10/09 11:53:43;;;;;;;15.80;4.88;;;;;;;;;;5029296;28;20049;-60
2023/10/09 11:56:14;;;;;;;15.70;5.45;;;;;;;;;;5009152;28;20105;-60
2023/10/09 11:58:40;;;;;;;17.33;5.97;;;;;;;;;;5033574;28;20156;-61
2023/10/09 12:01:17;;;;;;;20.67;5.60;;;;;;;;;;5038329;28;20079;-60
2023/10/09 12:03:49;;;;;;;17.88;5.65;;;;;;;;;;5039782;28;20044;-60
2023/10/09 12:06:18;;;;;;;13.45;4.72;;;;;;;;;;5039262;28;20057;-61
2023/10/09 12:08:48;;;;;;;17.63;5.00;;;;;;;;;;5038244;28;20044;-61
2023/10/09 12:11:22;;;;;;;16.15;4.82;;;;;;;;;;5041662;28;20048;-61
2023/10/09 12:13:48;;;;;;;13.32;4.78;;;;;;;;;;5022369;28;20118;-58
2023/10/09 12:16:15;;;;;;;14.27;4.65;;;;;;;;;;5021075;28;20049;-58
2023/10/09 12:18:42;;;;;;;18.25;5.50;;;;;;;;;;5038834;28;20052;-58
2023/10/09 12:21:15;;;;;;;16.05;5.82;;;;;;;;;;5006417;28;20046;-58
2023/10/09 12:23:43;;;;;;;14.15;4.80;;;;;;;;;;5023974;28;20045;-58
2023/10/09 12:26:14;;;;;;;;;;;;;;;;;;5033003;28;20045;-58
2023/10/09 12:28:40;;;;;;;21.45;4.57;;;;;;;;;;5039907;28;19921;-58
2023/10/09 12:31:06;;;;;;;14.95;4.68;;;;;;;;;;5025843;28;20056;-58
2023/10/09 12:33:32;;;;;;;13.73;4.55;;;;;;;;;;5028565;28;20041;-58
2023/10/09 12:36:02;;;;;;;15.38;4.70;;;;;;;;;;5040587;28;20429;-58
2023/10/09 12:38:32;;;;;;;13.93;4.43;;;;;;;;;;5039914;28;20121;-58
2023/10/09 12:41:15;;;;;;;18.35;4.57;;;;;;;;;;5039988;28;20044;-58
2023/10/09 12:43:42;;;;;;;19.98;4.72;;;;;;;;;;5039267;28;21437;-58
2023/10/09 12:46:08;;;;;;;14.02;4.70;;;;;;;;;;5049406;28;20438;-58
2023/10/09 12:48:35;;;;;;;10.85;3.83;;;;;;;;;;5038549;28;20561;-58
2023/10/09 12:51:06;;;;;;;20.17;4.18;;;;;;;;;;5029118;28;20045;-58
2023/10/09 12:53:33;;;;;;;9.77;3.75;;;;;;;;;;5040611;28;20258;-58
2023/10/09 12:55:59;;;;;;;13.18;4.22;;;;;;;;;;5038591;28;20136;-58
2023/10/09 12:58:26;;;;;;;20.33;4.43;;;;;;;;;;5040696;28;20045;-59
2023/10/09 13:00:53;;;;;;;13.75;3.83;;;;;;;;;;5039181;28;20052;-58
2023/10/09 13:03:19;;;;;;;12.50;3.72;;;;;;;;;;5035640;28;20049;-58
2023/10/09 13:05:58;;;;;;;17.52;4.07;;;;;;;;;;5034195;28;20577;-58
2023/10/09 13:08:31;;;;;;;13.00;3.75;;;;;;;;;;5039125;28;20055;-60
2023/10/09 13:11:00;;;;;;;13.80;3.58;;;;;;;;;;5036138;28;20091;-61
2023/10/09 13:13:50;;;;;;;12.73;3.67;;;;;;;;;;5038372;28;20693;-62
2023/10/09 13:16:23;;;;;;;12.60;3.03;;;;;;;;;;5026225;28;20061;-60
2023/10/09 13:19:05;;;;;;;8.05;3.10;;;;;;;;;;5044778;28;20107;-60
2023/10/09 13:21:31;;;;;;;7.05;2.72;;;;;;;;;;5023475;28;20058;-61
2023/10/09 13:24:00;;;;;;;7.80;2.63;;;;;;;;;;5036643;28;20041;-61
2023/10/09 13:26:29;;;;;;;12.15;3.05;;;;;;;;;;5023080;28;20053;-61
2023/10/09 13:28:58;;;;;;;14.15;3.42;;;;;;;;;;5003643;28;20475;-60
2023/10/09 13:31:26;;;;;;;7.47;3.00;;;;;;;;;;5020721;28;20045;-60
2023/10/09 13:33:55;;;;;;;10.60;2.85;;;;;;;;;;5031428;28;20098;-60
2023/10/09 13:36:27;;;;;;;8.60;2.70;;;;;;;;;;5031028;28;20458;-60
2023/10/09 13:39:21;;;;;;;10.18;2.95;;;;;;;;;;5027628;28;20037;-60
2023/10/09 13:41:48;;;;;;;12.02;2.83;;;;;;;;;;5031736;28;20059;-61
2023/10/09 13:44:14;;;;;;;10.27;2.70;;;;;;;;;;5026118;28;20358;-60
2023/10/09 13:46:44;;;;;;;9.00;3.33;;;;;;;;;;5030196;28;20124;-61
2023/10/09 13:49:13;;;;;;;6.07;2.40;;;;;;;;;;5031496;28;20045;-60
2023/10/09 13:51:46;;;;;;;11.52;2.67;;;;;;;;;;5025612;28;20052;-61
2023/10/09 13:54:21;;;;;;;9.10;2.63;;;;;;;;;;5045512;28;20989;-60
2023/10/09 13:56:53;;;;;;;10.00;2.55;;;;;;;;;;5032301;28;20053;-60
2023/10/09 13:59:25;;;;;;;18.15;3.03;;;;;;;;;;5024503;28;20045;-61
2023/10/09 14:01:54;;;;;;;12.52;2.60;;;;;;;;;;5021244;28;20128;-61
2023/10/09 14:04:20;;;;;;;9.05;2.30;;;;;;;;;;5035091;28;20052;-60
2023/10/09 14:06:47;;;;;;;10.77;3.20;;;;;;;;;;5030760;28;20153;-60
2023/10/09 14:09:27;;;;;;;8.30;2.45;;;;;;;;;;5033074;28;20125;-60
2023/10/09 14:12:05;;;;;;;8.23;2.33;;;;;;;;;;5021455;28;20041;-60
2023/10/09 14:14:31;;;;;;;10.13;3.33;;;;;;;;;;5034838;28;20044;-60
2023/10/09 14:16:57;;;;;;;9.38;2.22;;;;;;;;;;5040416;28;20049;-60
2023/10/09 14:19:23;;;;;;;8.40;2.67;;;;;;;;;;5028381;28;20845;-58
2023/10/09 14:21:51;;;;;;;9.13;2.85;;;;;;;;;;5034462;28;20106;-58
2023/10/09 14:24:18;;;;;;;13.85;2.85;;;;;;;;;;5040193;28;20060;-58
2023/10/09 14:26:46;;;;;;;7.85;2.83;;;;;;;;;;5039271;28;20052;-58
2023/10/09 14:29:16;;;;;;;11.55;2.30;;;;;;;;;;5038940;28;20072;-58
2023/10/09 14:31:59;;;;;;;9.98;2.83;;;;;;;;;;5036863;28;20053;-58
2023/10/09 14:34:32;;;;;;;7.60;2.13;;;;;;;;;;5037675;28;20052;-58
2023/10/09 14:37:00;;;;;;;8.65;2.38;;;;;;;;;;5041565;28;20157;-58
2023/10/09 14:39:26;;;;;;;11.32;2.53;;;;;;;;;;5028867;28;20053;-58
2023/10/09 14:41:54;;;;;;;11.18;2.38;;;;;;;;;;5036486;28;20057;-58
2023/10/09 14:44:21;;;;;;;8.95;2.97;;;;;;;;;;5028655;28;20053;-58
2023/10/09 14:46:49;;;;;;;11.13;2.17;;;;;;;;;;5029161;28;20056;-58
2023/10/09 14:49:15;;;;;;;8.32;2.15;;;;;;;;;;5027317;28;20125;-57
2023/10/09 14:51:41;;;;;;;9.35;2.63;;;;;;;;;;5041154;28;20052;-58
2023/10/09 14:54:07;;;;;;;10.05;2.45;;;;;;;;;;5022698;28;20059;-58
2023/10/09 14:56:36;;;;;;;8.55;2.65;;;;;;;;;;5039712;28;20052;-58
2023/10/09 14:59:02;;;;;;;8.27;2.70;;;;;;;;;;5039646;28;20053;-58
2023/10/09 15:01:31;;;;;;;7.80;2.53;;;;;;;;;;5042318;28;20048;-58
2023/10/09 15:03:59;;;;;;;8.43;2.35;;;;;;;;;;5035871;28;20056;-58
2023/10/09 15:06:27;;;;;;;19.10;2.88;;;;;;;;;;5041517;28;20062;-58
2023/10/09 15:08:53;;;;;;;9.48;2.30;;;;;;;;;;5034885;28;20045;-58
2023/10/09 15:11:23;;;;;;;8.52;2.20;;;;;;;;;;5025485;28;20049;-58
2023/10/09 15:13:49;;;;;;;9.15;2.53;;;;;;;;;;5035471;28;20052;-58
2023/10/09 15:16:15;;;;;;;10.00;2.03;;;;;;;;;;5005114;28;20053;-58
2023/10/09 15:18:41;;;;;;;9.30;2.45;;;;;;;;;;5038676;28;20051;-58
2023/10/09 15:21:08;;;;;;;11.68;2.08;;;;;;;;;;5030336;28;20060;-60
2023/10/09 15:23:36;;;;;;;7.20;2.80;;;;;;;;;;5043805;28;20102;-59
2023/10/09 15:26:02;;;;;;;9.17;2.57;;;;;;;;;;5035110;28;20120;-59
2023/10/09 15:28:32;;;;;;;11.05;2.60;;;;;;;;;;5041126;28;20056;-60
2023/10/09 15:30:58;;;;;;;7.88;2.38;;;;;;;;;;5033170;28;20100;-59
2023/10/09 15:33:30;;;;;;;9.65;1.90;;;;;;;;;;5035204;28;20045;-59
2023/10/09 15:35:56;;;;;;;8.13;1.90;;;;;;;;;;5038481;28;20084;-59
2023/10/09 15:38:25;;;;;;;11.82;2.00;;;;;;;;;;5043222;28;20050;-60
2023/10/09 15:40:51;;;;;;;7.57;2.13;;;;;;;;;;5026112;28;20119;-59
2023/10/09 15:43:17;;;;;;;8.73;2.10;;;;;;;;;;5033942;28;20079;-61
2023/10/09 15:45:47;;;;;;;10.15;1.98;;;;;;;;;;5030776;28;20037;-60
2023/10/09 15:48:15;;;;;;;7.72;2.83;;;;;;;;;;5007696;28;20055;-59
2023/10/09 15:50:48;;;;;;;4.53;1.88;;;;;;;;;;5020297;28;20179;-59
2023/10/09 15:53:16;;;;;;;8.38;1.77;;;;;;;;;;5032243;28;20089;-60
2023/10/09 15:55:42;;;;;;;7.25;1.67;;;;;;;;;;5041513;28;20052;-59
2023/10/09 15:58:08;;;;;;;9.90;2.10;;;;;;;;;;5031689;28;20037;-60
2023/10/09 16:00:34;;;;;;;4.43;1.73;;;;;;;;;;5035500;28;20480;-59
2023/10/09 16:03:00;;;;;;;6.78;1.70;;;;;;;;;;5032448;28;20053;-59
2023/10/09 16:05:27;;;;;;;6.20;1.60;;;;;;;;;;5040813;28;20053;-59
2023/10/09 16:07:53;;;;;;;5.60;1.50;;;;;;;;;;5033413;28;20270;-59
2023/10/09 16:10:20;;;;;;;7.57;1.50;;;;;;;;;;5039059;28;20045;-59
2023/10/09 16:12:46;;;;;;;6.57;1.60;;;;;;;;;;5025259;28;20046;-59
2023/10/09 16:15:14;;;;;;;6.85;1.73;;;;;;;;;;5037417;28;20048;-59
2023/10/09 16:17:44;;;;;;;7.93;1.70;;;;;;;;;;5023429;28;20046;-60
2023/10/09 16:20:15;;;;;;;6.78;1.65;;;;;;;;;;5026118;28;20041;-60
2023/10/09 16:22:41;;;;;;;6.13;1.92;;;;;;;;;;5032412;28;20033;-59
2023/10/09 16:25:09;;;;;;;5.25;1.60;;;;;;;;;;5040754;28;21702;-60
2023/10/09 16:27:46;;;;;;;5.07;1.48;;;;;;;;;;5041250;28;20080;-60
2023/10/09 16:30:14;;;;;;;5.60;1.63;;;;;;;;;;5037906;28;20064;-59
2023/10/09 16:32:41;;;;;;;4.40;1.50;;;;;;;;;;5032318;28;20049;-60
2023/10/09 16:35:09;;;;;;;7.75;1.67;;;;;;;;;;5038186;28;20057;-59
2023/10/09 16:37:35;;;;;;;3.43;1.60;;;;;;;;;;5038653;28;20057;-60
2023/10/09 16:40:06;;;;;;;4.78;1.60;;;;;;;;;;5035724;28;20495;-59
2023/10/09 16:42:35;;;;;;;6.40;1.63;;;;;;;;;;5027896;28;20081;-59
2023/10/09 16:45:03;;;;;;;5.88;1.70;;;;;;;;;;5033884;28;20045;-60
2023/10/09 16:47:29;;;;;;;5.18;1.73;;;;;;;;;;5034932;28;20514;-60
2023/10/09 16:49:56;;;;;;;10.63;2.25;;;;;;;;;;5033959;28;20690;-60
2023/10/09 16:52:23;;;;;;;6.22;2.03;;;;;;;;;;5032646;28;20044;-60
2023/10/09 16:54:50;;;;;;;12.57;1.95;;;;;;;;;;5014847;28;20859;-60
2023/10/09 16:57:18;;;;;;;5.80;2.07;;;;;;;;;;5028812;28;20056;-60
2023/10/09 16:59:44;;;;;;;6.10;2.03;;;;;;;;;;5031797;28;20287;-60
2023/10/09 17:02:18;;;;;;;6.40;1.80;;;;;;;;;;5040231;28;21095;-59
2023/10/09 17:04:46;;;;;;;6.82;2.17;;;;;;;;;;5036278;28;20140;-60
2023/10/09 17:07:15;;;;;;;5.93;1.88;;;;;;;;;;5038143;28;20091;-61
2023/10/09 17:09:47;;;;;;;6.15;2.22;;;;;;;;;;5033873;28;20053;-60
2023/10/09 17:12:13;;;;;;;8.38;2.65;;;;;;;;;;5038397;28;20049;-60
2023/10/09 17:14:39;;;;;;;7.18;2.20;;;;;;;;;;5028243;28;20111;-61
2023/10/09 17:17:08;;;;;;;9.80;2.00;;;;;;;;;;5040626;28;20040;-60
2023/10/09 17:19:37;;;;;;;5.78;2.22;;;;;;;;;;5031585;28;20060;-60
2023/10/09 17:22:10;;;;;;;8.05;1.95;;;;;;;;;;5024953;28;20080;-61
2023/10/09 17:24:39;;;;;;;4.32;1.92;;;;;;;;;;5021421;28;20053;-60
2023/10/09 17:27:08;;;;;;;6.47;2.10;;;;;;;;;;5033280;28;20052;-60
2023/10/09 17:29:37;;;;;;;9.75;2.33;;;;;;;;;;5033139;28;20048;-60
2023/10/09 17:32:04;;;;;;;7.65;2.38;;;;;;;;;;5037495;28;20053;-60
2023/10/09 17:34:33;;;;;;;5.40;2.10;;;;;;;;;;5033108;28;20475;-60
2023/10/09 17:36:59;;;;;;;11.63;2.63;;;;;;;;;;5029684;28;20072;-61
2023/10/09 17:39:26;;;;;;;8.18;2.30;;;;;;;;;;5040183;28;20088;-61
2023/10/09 17:41:53;;;;;;;7.25;2.45;;;;;;;;;;5039416;28;20045;-61
2023/10/09 17:44:21;;;;;;;8.97;2.97;;;;;;;;;;5021622;28;20057;-61
2023/10/09 17:46:48;;;;;;;13.13;3.87;;;;;;;;;;5032548;28;20051;-60
2023/10/09 17:49:15;;;;;;;8.30;3.10;;;;;;;;;;5043283;28;20291;-60